createdAt,value
2023-03-19T00:01:46.536Z,3.08
2023-03-19T00:04:13.529Z,2.58
2023-03-19T00:06:40.562Z,2.63
2023-03-19T00:09:11.397Z,2.85
2023-03-19T00:11:38.270Z,4.05
2023-03-19T00:14:05.312Z,2.22
2023-03-19T00:16:35.714Z,2.95
2023-03-19T00:19:02.497Z,2.95
2023-03-19T00:21:30.746Z,2.63
2023-03-19T00:24:02.583Z,2.90
2023-03-19T00:26:29.286Z,3.28
2023-03-19T00:29:02.766Z,2.60
2023-03-19T00:31:32.217Z,3.63
2023-03-19T00:33:59.205Z,3.15
2023-03-19T00:36:28.869Z,2.80
2023-03-19T00:38:55.782Z,2.08
2023-03-19T00:41:23.177Z,3.35
2023-03-19T00:43:50.310Z,2.47
2023-03-19T00:46:17.200Z,2.72
2023-03-19T00:48:44.011Z,3.47
2023-03-19T00:51:27.370Z,3.63
2023-03-19T00:53:57.143Z,3.05
2023-03-19T00:56:23.847Z,2.72
2023-03-19T00:58:50.794Z,2.63
2023-03-19T01:01:17.756Z,3.28
2023-03-19T01:03:45.331Z,3.45
2023-03-19T01:06:12.248Z,3.45
2023-03-19T01:08:39.505Z,2.08
2023-03-19T01:11:06.674Z,2.78
2023-03-19T01:13:35.355Z,2.47
2023-03-19T01:16:02.122Z,3.03
2023-03-19T01:18:29.061Z,3.75
2023-03-19T01:20:56.237Z,2.55
2023-03-19T01:23:24.016Z,2.13
2023-03-19T01:25:50.967Z,3.15
2023-03-19T01:28:17.648Z,2.90
2023-03-19T01:30:44.539Z,3.50
2023-03-19T01:33:29.043Z,3.47
2023-03-19T01:36:10.876Z,3.55
2023-03-19T01:38:37.878Z,2.88
2023-03-19T01:41:04.632Z,3.65
2023-03-19T01:43:31.757Z,3.80
2023-03-19T01:45:58.750Z,3.00
2023-03-19T01:48:25.785Z,3.10
2023-03-19T01:50:56.303Z,3.50
2023-03-19T01:53:23.045Z,4.15
2023-03-19T01:55:50.422Z,4.07
2023-03-19T01:58:26.074Z,3.50
2023-03-19T02:00:52.888Z,3.45
2023-03-19T02:03:23.843Z,2.47
2023-03-19T02:05:50.789Z,2.45
2023-03-19T02:08:23.354Z,2.13
2023-03-19T02:13:31.129Z,1.83
2023-03-19T02:15:58.433Z,1.92
2023-03-19T02:18:25.665Z,2.08
2023-03-19T02:20:53.223Z,1.60
2023-03-19T02:23:19.938Z,1.88
2023-03-19T02:25:46.700Z,1.77
2023-03-19T02:28:13.444Z,3.45
2023-03-19T02:30:40.100Z,2.88
2023-03-19T02:33:07.050Z,2.15
2023-03-19T02:35:33.910Z,3.13
2023-03-19T02:38:01.073Z,1.80
2023-03-19T02:40:27.850Z,2.25
2023-03-19T02:42:54.768Z,1.60
2023-03-19T02:45:21.737Z,2.00
2023-03-19T02:47:48.546Z,2.05
2023-03-19T02:50:18.814Z,2.65
2023-03-19T02:52:46.276Z,1.48
2023-03-19T02:55:13.309Z,2.33
2023-03-19T02:57:47.844Z,1.85
2023-03-19T03:00:19.211Z,2.00
2023-03-19T03:02:46.797Z,2.35
2023-03-19T03:05:15.166Z,2.33
2023-03-19T03:07:43.935Z,2.25
2023-03-19T03:10:11.036Z,1.65
2023-03-19T03:12:38.877Z,1.80
2023-03-19T03:15:07.778Z,2.40
2023-03-19T03:17:35.528Z,2.25
2023-03-19T03:20:05.605Z,1.50
2023-03-19T03:22:32.824Z,4.03
2023-03-19T03:25:01.415Z,2.08
2023-03-19T03:27:29.935Z,1.40
2023-03-19T03:29:57.611Z,1.80
2023-03-19T03:32:26.926Z,1.65
2023-03-19T03:34:54.587Z,1.75
2023-03-19T03:37:25.078Z,2.15
2023-03-19T03:39:53.572Z,1.73
2023-03-19T03:42:23.114Z,2.10
2023-03-19T03:44:50.052Z,2.22
2023-03-19T03:47:18.099Z,2.05
2023-03-19T03:49:45.112Z,2.17
2023-03-19T03:52:26.980Z,2.13
2023-03-19T03:54:53.851Z,2.55
2023-03-19T03:57:21.112Z,2.50
2023-03-19T03:59:50.278Z,2.72
2023-03-19T04:02:20.984Z,3.20
2023-03-19T04:04:51.360Z,2.22
2023-03-19T04:07:18.453Z,2.00
2023-03-19T04:09:46.279Z,2.38
2023-03-19T04:12:13.038Z,2.47
2023-03-19T04:14:39.952Z,2.00
2023-03-19T04:17:09.729Z,3.92
2023-03-19T04:19:36.690Z,2.40
2023-03-19T04:22:03.932Z,2.53
2023-03-19T04:24:31.598Z,2.95
2023-03-19T04:27:01.184Z,3.03
2023-03-19T04:29:28.925Z,2.47
2023-03-19T04:31:59.154Z,3.38
2023-03-19T04:34:26.810Z,3.40
2023-03-19T04:36:53.710Z,2.38
2023-03-19T04:39:20.462Z,2.63
2023-03-19T04:41:47.279Z,3.25
2023-03-19T04:44:14.292Z,2.15
2023-03-19T04:46:41.041Z,2.83
2023-03-19T04:49:08.189Z,3.50
2023-03-19T04:51:35.032Z,2.67
2023-03-19T04:54:04.772Z,2.47
2023-03-19T04:56:31.465Z,3.08
2023-03-19T04:58:58.208Z,2.72
2023-03-19T05:01:25.403Z,3.90
2023-03-19T05:03:52.371Z,2.45
2023-03-19T05:06:20.331Z,2.08
2023-03-19T05:08:47.279Z,3.38
2023-03-19T05:11:14.110Z,2.90
2023-03-19T05:13:41.122Z,2.55
2023-03-19T05:16:08.227Z,3.85
2023-03-19T05:18:41.123Z,3.03
2023-03-19T05:21:08.451Z,3.20
2023-03-19T05:23:35.739Z,2.88
2023-03-19T05:26:03.007Z,3.17
2023-03-19T05:28:30.119Z,2.28
2023-03-19T05:30:57.097Z,2.38
2023-03-19T05:33:25.067Z,2.42
2023-03-19T05:35:52.332Z,2.80
2023-03-19T05:38:19.252Z,2.78
2023-03-19T05:40:46.295Z,3.90
2023-03-19T05:43:13.257Z,2.47
2023-03-19T05:45:41.700Z,1.67
2023-03-19T05:48:14.614Z,2.72
2023-03-19T05:50:42.952Z,3.33
2023-03-19T05:53:09.784Z,2.80
2023-03-19T05:55:39.536Z,2.63
2023-03-19T05:58:07.930Z,2.30
2023-03-19T06:00:35.663Z,2.83
2023-03-19T06:03:06.019Z,3.20
2023-03-19T06:05:38.570Z,3.30
2023-03-19T06:08:05.764Z,2.45
2023-03-19T06:10:35.688Z,2.72
2023-03-19T06:13:02.724Z,3.00
2023-03-19T06:15:29.476Z,4.25
2023-03-19T06:18:01.736Z,2.38
2023-03-19T06:20:28.629Z,2.45
2023-03-19T06:22:55.457Z,2.67
2023-03-19T06:25:22.449Z,2.58
2023-03-19T06:27:49.793Z,2.72
2023-03-19T06:30:16.558Z,2.83
2023-03-19T06:32:43.990Z,3.35
2023-03-19T06:35:11.233Z,3.13
2023-03-19T06:37:38.044Z,3.00
2023-03-19T06:40:05.277Z,2.50
2023-03-19T06:42:32.079Z,2.65
2023-03-19T06:44:58.768Z,3.58
2023-03-19T06:47:26.221Z,2.78
2023-03-19T06:49:53.178Z,3.22
2023-03-19T06:52:20.018Z,2.50
2023-03-19T06:54:46.727Z,2.22
2023-03-19T06:57:13.708Z,2.25
2023-03-19T06:59:40.508Z,2.25
2023-03-19T07:02:09.640Z,2.15
2023-03-19T07:04:36.943Z,2.92
2023-03-19T07:07:06.038Z,2.83
2023-03-19T07:09:33.132Z,2.38
2023-03-19T07:12:00.555Z,2.55
2023-03-19T07:14:27.360Z,2.38
2023-03-19T07:16:54.091Z,1.98
2023-03-19T07:19:21.026Z,3.03
2023-03-19T07:21:50.233Z,2.95
2023-03-19T07:24:17.021Z,2.33
2023-03-19T07:26:44.386Z,2.40
2023-03-19T07:29:11.347Z,2.38
2023-03-19T07:31:38.103Z,2.45
2023-03-19T07:34:04.932Z,3.38
2023-03-19T07:36:31.895Z,1.55
2023-03-19T07:38:58.751Z,2.00
2023-03-19T07:41:26.110Z,2.83
2023-03-19T07:43:53.280Z,2.28
2023-03-19T07:46:20.130Z,4.65
2023-03-19T07:48:46.894Z,3.00
2023-03-19T07:51:13.716Z,2.70
2023-03-19T07:53:41.179Z,3.17
2023-03-19T07:56:11.004Z,3.15
2023-03-19T07:58:38.231Z,1.98
2023-03-19T08:01:05.048Z,2.72
2023-03-19T08:03:31.772Z,2.00
2023-03-19T08:05:58.702Z,3.70
2023-03-19T08:08:25.476Z,2.42
2023-03-19T08:10:52.790Z,3.92
2023-03-19T08:13:20.186Z,3.75
2023-03-19T08:15:47.323Z,2.88
2023-03-19T08:18:14.144Z,3.28
2023-03-19T08:20:41.291Z,2.72
2023-03-19T08:23:08.543Z,2.95
2023-03-19T08:25:35.704Z,3.50
2023-03-19T08:28:03.177Z,2.35
2023-03-19T08:30:35.883Z,2.42
2023-03-19T08:33:03.589Z,3.15
2023-03-19T08:35:31.362Z,2.97
2023-03-19T08:37:58.216Z,2.10
2023-03-19T08:40:25.060Z,3.00
2023-03-19T08:42:54.152Z,3.15
2023-03-19T08:45:26.881Z,2.60
2023-03-19T08:47:53.867Z,2.55
2023-03-19T08:50:20.602Z,2.25
2023-03-19T08:52:47.349Z,2.97
2023-03-19T08:55:14.585Z,2.78
2023-03-19T08:57:41.399Z,3.70
2023-03-19T09:00:08.110Z,2.28
2023-03-19T09:02:34.816Z,2.72
2023-03-19T09:05:01.794Z,3.17
2023-03-19T09:07:40.818Z,3.42
2023-03-19T09:10:07.459Z,2.88
2023-03-19T09:12:34.858Z,2.60
2023-03-19T09:15:01.687Z,2.15
2023-03-19T09:17:28.883Z,2.90
2023-03-19T09:19:55.624Z,2.15
2023-03-19T09:22:22.444Z,3.63
2023-03-19T09:24:49.133Z,2.15
2023-03-19T09:27:15.817Z,3.17
2023-03-19T09:29:42.801Z,1.98
2023-03-19T09:32:09.612Z,2.50
2023-03-19T09:34:37.145Z,2.33
2023-03-19T09:37:04.659Z,2.75
2023-03-19T09:39:32.526Z,3.03
2023-03-19T09:42:01.216Z,2.03
2023-03-19T09:44:28.214Z,2.75
2023-03-19T09:46:56.332Z,3.08
2023-03-19T09:49:23.526Z,2.72
2023-03-19T09:51:51.031Z,2.30
2023-03-19T09:54:18.098Z,1.95
2023-03-19T09:56:48.094Z,2.90
2023-03-19T09:59:15.331Z,2.03
2023-03-19T10:01:42.566Z,2.72
2023-03-19T10:04:09.321Z,2.00
2023-03-19T10:06:39.299Z,1.85
2023-03-19T10:09:06.897Z,1.73
2023-03-19T10:11:33.861Z,1.38
2023-03-19T10:14:00.893Z,2.63
2023-03-19T10:16:28.182Z,2.17
2023-03-19T10:18:55.220Z,1.63
2023-03-19T10:21:22.422Z,2.22
2023-03-19T10:23:49.892Z,2.38
2023-03-19T10:26:17.050Z,2.10
2023-03-19T10:28:44.387Z,1.42
2023-03-19T10:31:11.139Z,1.83
2023-03-19T10:33:38.518Z,2.05
2023-03-19T10:36:05.911Z,2.22
2023-03-19T10:38:33.744Z,2.67
2023-03-19T10:41:00.513Z,1.95
2023-03-19T10:43:27.494Z,1.75
2023-03-19T10:45:54.872Z,1.80
2023-03-19T10:48:22.521Z,2.00
2023-03-19T10:50:49.878Z,2.30
2023-03-19T10:53:16.961Z,2.83
2023-03-19T10:55:43.661Z,1.67
2023-03-19T10:58:10.517Z,1.17
2023-03-19T11:00:37.966Z,2.15
2023-03-19T11:03:05.878Z,1.65
2023-03-19T11:05:33.947Z,1.65
2023-03-19T11:08:01.334Z,0.90
2023-03-19T11:10:28.303Z,1.50
2023-03-19T11:12:55.404Z,2.55
2023-03-19T11:15:23.022Z,1.10
2023-03-19T11:17:50.161Z,1.00
2023-03-19T11:20:16.944Z,1.17
2023-03-19T11:22:43.883Z,1.80
2023-03-19T11:25:13.562Z,1.00
2023-03-19T11:27:40.480Z,1.10
2023-03-19T11:30:07.528Z,1.50
2023-03-19T11:32:37.397Z,1.05
2023-03-19T11:35:04.510Z,1.52
2023-03-19T11:37:31.987Z,0.98
2023-03-19T11:39:59.028Z,1.67
2023-03-19T11:42:26.462Z,1.50
2023-03-19T11:44:53.240Z,1.52
2023-03-19T11:47:27.156Z,1.10
2023-03-19T11:49:54.990Z,1.75
2023-03-19T11:52:22.166Z,1.30
2023-03-19T11:54:49.204Z,1.65
2023-03-19T11:57:18.091Z,1.38
2023-03-19T11:59:45.195Z,1.70
2023-03-19T12:02:12.053Z,1.50
2023-03-19T12:04:38.764Z,1.60
2023-03-19T12:07:05.648Z,1.67
2023-03-19T12:09:34.595Z,1.77
2023-03-19T12:12:01.876Z,1.63
2023-03-19T12:14:31.626Z,1.88
2023-03-19T12:16:58.764Z,2.13
2023-03-19T12:19:25.593Z,1.83
2023-03-19T12:21:52.381Z,0.90
2023-03-19T12:24:19.065Z,1.02
2023-03-19T12:26:45.806Z,0.85
2023-03-19T12:29:12.802Z,1.92
2023-03-19T12:31:39.602Z,1.23
2023-03-19T12:34:06.908Z,1.17
2023-03-19T12:36:33.959Z,1.55
2023-03-19T12:39:01.442Z,1.80
2023-03-19T12:41:32.869Z,1.63
2023-03-19T12:46:28.082Z,2.08
2023-03-19T12:48:55.029Z,1.75
2023-03-19T12:51:23.156Z,1.52
2023-03-19T12:53:50.356Z,1.73
2023-03-19T12:56:17.886Z,1.95
2023-03-19T12:58:45.041Z,1.92
2023-03-19T13:01:13.929Z,1.92
2023-03-19T13:03:40.789Z,1.77
2023-03-19T13:06:08.766Z,1.23
2023-03-19T13:08:35.890Z,2.45
2023-03-19T13:11:02.832Z,2.80
2023-03-19T13:13:29.817Z,2.40
2023-03-19T13:15:57.036Z,2.35
2023-03-19T13:18:23.852Z,1.88
2023-03-19T13:20:50.841Z,1.50
2023-03-19T13:23:18.106Z,2.13
2023-03-19T13:25:46.144Z,2.03
2023-03-19T13:28:12.870Z,1.88
2023-03-19T13:30:40.529Z,2.28
2023-03-19T13:33:07.374Z,1.42
2023-03-19T13:35:34.231Z,1.38
2023-03-19T13:38:01.059Z,1.45
2023-03-19T13:40:27.981Z,1.95
2023-03-19T13:42:54.793Z,1.30
2023-03-19T13:45:21.431Z,2.80
2023-03-19T13:47:48.702Z,1.35
2023-03-19T13:50:16.390Z,1.70
2023-03-19T13:52:43.789Z,2.03
2023-03-19T13:55:11.235Z,1.05
2023-03-19T13:57:38.385Z,1.90
2023-03-19T14:00:07.904Z,1.83
2023-03-19T14:02:37.565Z,1.50
2023-03-19T14:05:04.808Z,2.05
2023-03-19T14:07:31.644Z,2.40
2023-03-19T14:09:58.762Z,1.80
2023-03-19T14:12:28.606Z,1.73
2023-03-19T14:14:56.026Z,2.67
2023-03-19T14:17:23.316Z,2.50
2023-03-19T14:19:50.231Z,1.88
2023-03-19T14:22:17.008Z,2.28
2023-03-19T14:24:59.992Z,1.38
2023-03-19T14:27:26.722Z,2.33
2023-03-19T14:29:53.984Z,2.20
2023-03-19T14:32:23.817Z,1.92
2023-03-19T14:34:50.767Z,2.35
2023-03-19T14:37:17.574Z,1.60
2023-03-19T14:39:44.419Z,2.25
2023-03-19T14:42:11.149Z,1.25
2023-03-19T14:44:37.968Z,1.70
2023-03-19T14:47:04.836Z,1.73
2023-03-19T14:49:32.021Z,1.80
2023-03-19T14:52:00.606Z,1.35
2023-03-19T14:54:27.614Z,1.40
2023-03-19T14:56:54.980Z,2.20
2023-03-19T14:59:25.151Z,2.35
2023-03-19T15:01:51.867Z,2.25
2023-03-19T15:04:18.633Z,2.33
2023-03-19T15:06:45.548Z,2.35
2023-03-19T15:09:12.316Z,2.38
2023-03-19T15:11:39.156Z,1.42
2023-03-19T15:14:05.994Z,1.70
2023-03-19T15:16:32.784Z,2.00
2023-03-19T15:19:00.017Z,2.92
2023-03-19T15:21:26.757Z,1.45
2023-03-19T15:23:53.966Z,1.83
2023-03-19T15:26:22.657Z,1.95
2023-03-19T15:28:49.733Z,2.25
2023-03-19T15:31:31.663Z,1.83
2023-03-19T15:34:03.892Z,1.30
2023-03-19T15:36:30.718Z,2.13
2023-03-19T15:38:57.711Z,2.05
2023-03-19T15:41:24.426Z,1.65
2023-03-19T15:43:51.239Z,2.30
2023-03-19T15:46:18.347Z,1.92
2023-03-19T15:48:45.279Z,2.35
2023-03-19T15:51:11.987Z,1.67
2023-03-19T15:53:38.718Z,2.00
2023-03-19T15:56:05.452Z,1.77
2023-03-19T15:58:32.245Z,2.10
2023-03-19T16:00:59.403Z,1.73
2023-03-19T16:03:26.286Z,1.52
2023-03-19T16:05:56.303Z,1.52
2023-03-19T16:08:23.026Z,1.58
2023-03-19T16:10:49.801Z,1.83
2023-03-19T16:13:16.587Z,1.63
2023-03-19T16:15:43.428Z,1.33
2023-03-19T16:18:10.319Z,1.70
2023-03-19T16:20:36.953Z,2.35
2023-03-19T16:23:03.704Z,1.55
2023-03-19T16:25:31.477Z,1.40
2023-03-19T16:28:01.379Z,1.52
2023-03-19T16:30:28.180Z,1.67
2023-03-19T16:32:54.958Z,1.40
2023-03-19T16:35:22.350Z,1.55
2023-03-19T16:37:49.268Z,1.77
2023-03-19T16:40:16.169Z,1.60
2023-03-19T16:42:42.910Z,2.22
2023-03-19T16:45:12.541Z,1.30
2023-03-19T16:47:39.612Z,1.50
2023-03-19T16:50:06.310Z,1.77
2023-03-19T16:52:33.009Z,1.33
2023-03-19T16:54:59.978Z,1.05
2023-03-19T16:57:27.163Z,1.15
2023-03-19T16:59:53.887Z,1.45
2023-03-19T17:02:20.670Z,1.45
2023-03-19T17:04:47.680Z,1.65
2023-03-19T17:07:14.523Z,2.38
2023-03-19T17:09:41.240Z,1.77
2023-03-19T17:12:08.003Z,1.20
2023-03-19T17:14:34.700Z,1.85
2023-03-19T17:17:02.340Z,1.35
2023-03-19T17:19:29.548Z,0.95
2023-03-19T17:21:58.885Z,2.13
2023-03-19T17:24:26.476Z,6.10
2023-03-19T17:26:54.221Z,3.72
2023-03-19T17:29:23.065Z,2.33
2023-03-19T17:31:50.036Z,2.15
2023-03-19T17:34:17.256Z,2.22
2023-03-19T17:36:43.938Z,2.25
2023-03-19T17:39:11.183Z,1.17
2023-03-19T17:41:38.827Z,1.92
2023-03-19T17:44:06.690Z,2.20
2023-03-19T17:46:33.857Z,1.80
2023-03-19T17:49:00.597Z,1.73
2023-03-19T17:51:27.350Z,2.42
2023-03-19T17:53:54.626Z,2.20
2023-03-19T17:56:24.137Z,1.48
2023-03-19T17:58:53.341Z,2.58
2023-03-19T18:01:20.207Z,2.35
2023-03-19T18:03:46.955Z,2.40
2023-03-19T18:06:13.617Z,3.28
2023-03-19T18:08:40.713Z,2.30
2023-03-19T18:11:07.684Z,2.45
2023-03-19T18:13:35.138Z,2.83
2023-03-19T18:16:01.972Z,3.35
2023-03-19T18:18:28.804Z,3.10
2023-03-19T18:20:55.705Z,2.90
2023-03-19T18:23:24.629Z,2.75
2023-03-19T18:25:51.678Z,3.65
2023-03-19T18:28:18.600Z,2.45
2023-03-19T18:30:47.411Z,3.63
2023-03-19T18:33:18.172Z,2.42
2023-03-19T18:35:45.592Z,3.08
2023-03-19T18:38:12.491Z,1.92
2023-03-19T18:40:46.974Z,3.33
2023-03-19T18:43:19.996Z,1.65
2023-03-19T18:45:47.322Z,2.60
2023-03-19T18:48:14.673Z,2.70
2023-03-19T18:50:44.842Z,3.13
2023-03-19T18:53:12.264Z,2.80
2023-03-19T18:55:39.516Z,3.17
2023-03-19T18:58:09.293Z,3.15
2023-03-19T19:00:37.064Z,3.33
2023-03-19T19:03:04.286Z,2.35
2023-03-19T19:05:31.742Z,3.00
2023-03-19T19:08:01.254Z,2.38
2023-03-19T19:10:28.404Z,2.45
2023-03-19T19:13:04.001Z,3.08
2023-03-19T19:15:31.880Z,2.00
2023-03-19T19:18:01.230Z,2.95
2023-03-19T19:20:28.522Z,2.55
2023-03-19T19:22:58.872Z,3.17
2023-03-19T19:25:25.956Z,2.35
2023-03-19T19:27:55.544Z,2.75
2023-03-19T19:30:22.835Z,3.30
2023-03-19T19:32:50.373Z,3.30
2023-03-19T19:35:17.423Z,2.85
2023-03-19T19:37:44.569Z,3.03
2023-03-19T19:40:12.116Z,4.03
2023-03-19T19:42:42.045Z,3.10
2023-03-19T19:45:09.034Z,4.18
2023-03-19T19:47:35.992Z,3.65
2023-03-19T19:50:03.338Z,5.40
2023-03-19T19:52:31.864Z,26.02
2023-03-19T19:54:58.633Z,29.08
2023-03-19T19:57:25.576Z,19.73
2023-03-19T19:59:55.530Z,14.05
2023-03-19T20:02:22.513Z,16.73
2023-03-19T20:04:49.735Z,18.70
2023-03-19T20:07:16.933Z,13.82
2023-03-19T20:09:44.549Z,12.55
2023-03-19T20:12:11.652Z,7.80
2023-03-19T20:14:38.784Z,10.52
2023-03-19T20:17:06.184Z,7.47
2023-03-19T20:19:33.188Z,11.15
2023-03-19T20:22:00.318Z,10.55
2023-03-19T20:24:27.083Z,10.23
2023-03-19T20:26:54.289Z,5.88
2023-03-19T20:29:21.527Z,5.32
2023-03-19T20:31:48.783Z,5.13
2023-03-19T20:34:28.621Z,5.70
2023-03-19T20:37:03.029Z,4.45
2023-03-19T20:39:30.146Z,3.50
2023-03-19T20:41:57.327Z,3.50
2023-03-19T20:44:24.542Z,2.95
2023-03-19T20:46:51.937Z,3.90
2023-03-19T20:49:19.025Z,4.43
2023-03-19T20:51:46.211Z,3.22
2023-03-19T20:54:13.276Z,4.15
2023-03-19T20:56:40.138Z,4.15
2023-03-19T20:59:07.197Z,5.15
2023-03-19T21:01:33.972Z,4.30
2023-03-19T21:04:00.974Z,4.10
2023-03-19T21:06:27.799Z,3.63
2023-03-19T21:08:57.425Z,5.63
2023-03-19T21:11:24.573Z,6.00
2023-03-19T21:13:52.144Z,4.57
2023-03-19T21:16:20.112Z,5.70
2023-03-19T21:18:49.908Z,6.47
2023-03-19T21:21:16.862Z,4.25
2023-03-19T21:23:43.919Z,4.50
2023-03-19T21:26:11.126Z,5.43
2023-03-19T21:28:38.227Z,4.90
2023-03-19T21:31:05.810Z,4.72
2023-03-19T21:33:33.381Z,4.50
2023-03-19T21:36:02.966Z,6.72
2023-03-19T21:38:30.279Z,4.78
2023-03-19T21:40:58.687Z,5.97
2023-03-19T21:43:26.638Z,3.97
2023-03-19T21:45:54.381Z,4.38
2023-03-19T21:48:21.226Z,4.10
2023-03-19T21:50:50.062Z,4.63
2023-03-19T21:53:16.764Z,4.63
2023-03-19T21:55:43.571Z,4.55
2023-03-19T21:58:10.929Z,5.30
2023-03-19T22:00:38.347Z,3.30
2023-03-19T22:03:05.577Z,6.82
2023-03-19T22:05:32.717Z,4.30
2023-03-19T22:08:00.165Z,5.88
2023-03-19T22:10:27.120Z,5.07
2023-03-19T22:12:54.342Z,3.95
2023-03-19T22:15:21.431Z,4.35
2023-03-19T22:17:48.631Z,4.28
2023-03-19T22:20:15.740Z,3.13
2023-03-19T22:22:43.245Z,4.25
2023-03-19T22:25:10.411Z,4.47
2023-03-19T22:27:37.642Z,4.72
2023-03-19T22:30:04.784Z,4.35
2023-03-19T22:32:31.666Z,4.15
2023-03-19T22:34:58.968Z,4.82
2023-03-19T22:37:26.708Z,4.80
2023-03-19T22:39:53.765Z,4.75
2023-03-19T22:42:20.982Z,5.00
2023-03-19T22:44:47.628Z,6.18
2023-03-19T22:47:14.289Z,3.95
2023-03-19T22:49:41.505Z,4.43
2023-03-19T22:52:08.249Z,3.40
2023-03-19T22:54:35.551Z,4.18
2023-03-19T22:57:02.759Z,4.10
2023-03-19T22:59:30.134Z,4.15
2023-03-19T23:01:58.624Z,2.47
2023-03-19T23:04:25.679Z,3.72
2023-03-19T23:06:52.494Z,3.92
2023-03-19T23:09:19.151Z,3.65
2023-03-19T23:11:46.586Z,4.15
2023-03-19T23:14:27.899Z,3.20
2023-03-19T23:19:24.089Z,5.60
2023-03-19T23:21:51.367Z,4.32
2023-03-19T23:24:22.293Z,5.03
2023-03-19T23:26:49.403Z,2.75
2023-03-19T23:29:19.054Z,3.88
2023-03-19T23:31:46.334Z,3.83
2023-03-19T23:34:13.433Z,3.78
2023-03-19T23:36:40.820Z,3.25
2023-03-19T23:39:10.383Z,3.88
2023-03-19T23:41:37.868Z,5.07
2023-03-19T23:44:04.977Z,3.33
2023-03-19T23:46:32.071Z,4.53
2023-03-19T23:48:59.011Z,3.35
2023-03-19T23:51:26.673Z,3.90
2023-03-19T23:53:54.249Z,3.45
2023-03-19T23:56:21.395Z,4.53
2023-03-19T23:58:48.034Z,4.05
